CheckWX is a tool to help pilots better visualize weather data.  It is not intended as a substitute for an official pre-flight weather briefing.

12:33:43 UTC

ESNN TAF
Sundsvall-Härnösand Airport
Sundsvall/ Härnösand, Sweden
TAF ESNN 201130Z 2012/2020 22010KT 9999 SCT045

Aug-20@
12:00 UTC

Aug-20 @ 12:00 UTC

Aug-20@
20:00 UTC

Aug-20 @ 20:00 UTC

TAF ESNN 201130Z 2012/2020 22010KT 9999 SCT045
Wind
  • 220° at 10 KTS
Cloud Levels
  • Scattered at 4,500' AGL